Time;durP1;ratioP1;P1;durP2;ratioP2;P2;SDS_P1;SDS_P2;PMS_P1;PMS_P2;Temp;Humidity;BMP_temperature;BMP_pressure;BME280_temperature;BME280_humidity;BME280_pressure;Samples;Min_cycle;Max_cycle;Signal;HPM_P1;HPM_P2
2021/04/11 00:06:24;;;;;;;1999.90;999.90;;;;;;;8.89;79.04;100883.00;15744279;28;20045;-62
2021/04/11 00:13:57;;;;;;;1999.90;999.90;;;;;;;9.03;78.76;100871.78;15726283;28;20089;-62
2021/04/11 00:21:28;;;;;;;1999.90;999.90;;;;;;;8.75;80.00;100860.00;15744432;28;20044;-62
2021/04/11 00:29:02;;;;;;;1999.90;999.90;;;;;;;9.00;79.20;100850.16;15725942;28;20051;-63
2021/04/11 00:36:34;;;;;;;1999.90;999.90;;;;;;;8.77;80.07;100832.69;15743209;28;20063;-63
2021/04/11 00:44:07;;;;;;;1999.90;999.90;;;;;;;8.66;81.25;100831.31;15742571;28;20492;-62
2021/04/11 00:51:39;;;;;;;1999.90;999.90;;;;;;;8.74;81.30;100826.94;15724208;28;20041;-64
2021/04/11 00:59:12;;;;;;;1999.90;999.90;;;;;;;8.77;80.95;100820.75;15741611;28;20404;-64
2021/04/11 01:06:48;;;;;;;1999.90;999.90;;;;;;;8.90;80.30;100809.53;15722939;28;20044;-63
2021/04/11 01:14:22;;;;;;;1999.90;999.90;;;;;;;8.83;80.67;100809.16;15723362;28;20049;-63
2021/04/11 01:22:09;;;;;;;1999.90;999.90;;;;;;;8.84;81.05;100798.84;15723227;28;20044;-63
2021/04/11 01:29:44;;;;;;;1999.90;999.90;;;;;;;8.91;80.74;100791.69;15706023;28;20161;-64
2021/04/11 01:37:21;;;;;;;1999.90;999.90;;;;;;;8.84;80.76;100787.69;15722245;28;20098;-63
2021/04/11 01:44:53;;;;;;;1999.90;999.90;;;;;;;8.87;81.41;100764.81;15722332;28;20071;-63
2021/04/11 01:52:31;;;;;;;1999.90;999.90;;;;;;;8.96;81.05;100755.38;15739469;28;20044;-61
2021/04/11 02:00:17;;;;;;;1999.90;999.90;;;;;;;8.98;81.12;100755.03;15705486;28;20045;-61
2021/04/11 02:07:56;;;;;;;1999.90;999.90;;;;;;;8.79;81.95;100733.03;15704756;28;20072;-63
2021/04/11 02:15:42;;;;;;;1999.90;999.90;;;;;;;8.99;81.24;100717.72;15724686;28;20130;-62
2021/04/11 02:23:15;;;;;;;1999.90;999.90;;;;;;;8.83;81.86;100708.16;15751419;28;20161;-62
2021/04/11 02:30:50;;;;;;;1999.90;999.90;;;;;;;8.82;81.92;100695.38;15733229;28;20043;-63
2021/04/11 02:38:22;;;;;;;1999.90;999.90;;;;;;;8.84;81.58;100696.69;15732818;28;20221;-61
2021/04/11 02:45:58;;;;;;;1999.90;999.90;;;;;;;8.63;82.86;100674.19;15750583;28;20041;-65
2021/04/11 02:53:32;;;;;;;1999.90;999.90;;;;;;;9.04;81.11;100674.97;15714137;28;20051;-63
2021/04/11 03:01:14;;;;;;;1999.90;999.90;;;;;;;8.72;82.29;100654.75;15715333;28;20442;-65
2021/04/11 03:08:51;;;;;;;1999.90;999.90;;;;;;;8.68;81.89;100653.78;15730641;28;20048;-62
2021/04/11 03:16:33;;;;;;;1999.90;999.90;;;;;;;8.88;81.91;100638.47;15713611;28;20041;-65
2021/04/11 03:24:06;;;;;;;1999.90;999.90;;;;;;;8.80;82.37;100630.91;15729615;28;20591;-63
2021/04/11 03:31:49;;;;;;;1999.90;999.90;;;;;;;8.93;81.16;100641.88;15728963;28;20523;-63
2021/04/11 03:39:22;;;;;;;1999.90;999.90;;;;;;;8.91;81.31;100646.16;15728778;28;20044;-62
2021/04/11 03:47:01;;;;;;;1999.90;999.90;;;;;;;8.98;81.37;100634.56;15727819;28;20147;-63
2021/04/11 03:54:41;;;;;;;1999.90;999.90;;;;;;;9.01;81.15;100619.97;15710027;28;20052;-63
2021/04/11 04:02:16;;;;;;;1999.90;999.90;;;;;;;8.98;80.83;100615.88;15727375;28;20051;-62
2021/04/11 04:09:53;;;;;;;1999.90;999.90;;;;;;;8.98;81.21;100617.84;15709705;28;20052;-65
2021/04/11 04:17:41;;;;;;;1999.90;999.90;;;;;;;9.01;81.14;100620.78;15709897;28;20049;-64
2021/04/11 04:25:27;;;;;;;1999.90;999.90;;;;;;;8.79;81.89;100618.13;15725711;28;20523;-62
2021/04/11 04:33:19;;;;;;;1999.90;999.90;;;;;;;9.11;80.58;100625.22;15708139;28;20055;-64
2021/04/11 04:41:06;;;;;;;1999.90;999.90;;;;;;;8.96;81.19;100609.81;15707783;28;20113;-64
2021/04/11 04:48:46;;;;;;;1999.90;999.90;;;;;;;9.00;80.62;100612.78;15707702;28;20052;-64
2021/04/11 04:56:42;;;;;;;1999.90;999.90;;;;;;;8.99;80.52;100603.59;15726602;28;20455;-64
2021/04/11 05:04:23;;;;;;;1999.90;999.90;;;;;;;9.08;80.54;100604.44;15724634;28;20040;-64
2021/04/11 05:12:05;;;;;;;1999.90;999.90;;;;;;;9.09;80.21;100597.72;15742546;28;20037;-64
2021/04/11 05:19:43;;;;;;;1999.90;999.90;;;;;;;9.37;78.74;100595.44;15723108;28;20156;-64
2021/04/11 05:27:36;;;;;;;1999.90;999.90;;;;;;;9.06;80.82;100586.41;15705508;28;20524;-63
2021/04/11 05:35:11;;;;;;;1999.90;999.90;;;;;;;9.24;79.85;100583.31;15721781;28;20072;-63
2021/04/11 05:42:53;;;;;;;1999.90;999.90;;;;;;;9.21;79.10;100569.25;15739644;28;20097;-63
2021/04/11 05:50:30;;;;;;;1999.90;999.90;;;;;;;9.29;79.53;100575.97;15721171;28;20465;-63
2021/04/11 05:58:08;;;;;;;1999.90;999.90;;;;;;;9.31;79.44;100574.47;15739872;28;20145;-64
2021/04/11 06:05:53;;;;;;;1999.90;999.90;;;;;;;9.57;78.10;100562.47;15705244;28;20044;-63
2021/04/11 06:13:36;;;;;;;1999.90;999.90;;;;;;;9.58;78.75;100545.44;15704568;28;20094;-64
2021/04/11 06:21:13;;;;;;;1999.90;999.90;;;;;;;9.74;78.09;100566.06;15739254;28;20055;-64
2021/04/11 06:28:52;;;;;;;1999.90;999.90;;;;;;;9.77;77.30;100550.66;15765019;23;20036;-61
2021/04/11 06:36:29;;;;;;;1999.90;999.90;;;;;;;10.13;74.87;100551.03;15774832;28;20078;-61
2021/04/11 06:44:36;;;;;;;1999.90;999.90;;;;;;;10.97;74.15;100532.53;15760875;28;20051;-61
2021/04/11 06:52:35;;;;;;;1999.90;999.90;;;;;;;11.91;71.15;100532.00;15757103;28;20507;-59
2021/04/11 07:00:19;;;;;;;1999.90;999.90;;;;;;;10.88;72.99;100531.78;15793832;28;20050;-61
2021/04/11 07:08:25;;;;;;;1999.90;999.90;;;;;;;11.57;72.05;100531.19;15804291;28;20040;-58
2021/04/11 07:16:15;;;;;;;1999.90;999.90;;;;;;;13.10;66.71;100515.81;15769259;28;20048;-57
2021/04/11 07:24:04;;;;;;;1999.90;999.90;;;;;;;12.48;67.58;100522.69;15803865;28;20044;-55
2021/04/11 07:32:00;;;;;;;1999.90;999.90;;;;;;;12.66;67.52;100532.50;15803787;28;20047;-56
2021/04/11 07:39:43;;;;;;;1999.90;999.90;;;;;;;13.08;66.54;100520.16;15801986;28;20040;-62
2021/04/11 07:47:31;;;;;;;1999.90;999.90;;;;;;;14.20;63.02;100534.13;15801079;28;20104;-60
2021/04/11 07:55:18;;;;;;;1999.90;999.90;;;;;;;13.63;63.26;100536.19;15782055;28;20055;-62
2021/04/11 08:03:18;;;;;;;1999.90;999.90;;;;;;;14.53;61.39;100528.16;15781250;28;20376;-61
2021/04/11 08:11:11;;;;;;;1999.90;999.90;;;;;;;15.49;57.00;100524.66;15766647;28;20191;-61
2021/04/11 08:19:02;;;;;;;1999.90;999.90;;;;;;;14.91;59.48;100530.25;15736835;28;20056;-60
2021/04/11 08:27:02;;;;;;;1999.90;999.90;;;;;;;15.07;59.92;100524.56;15768571;28;20089;-59
2021/04/11 08:35:05;;;;;;;1999.90;999.90;;;;;;;14.76;59.57;100517.03;15783860;28;20094;-62
2021/04/11 08:43:01;;;;;;;;;;;;;;;15.43;59.16;100512.09;15794597;28;20055;-61
2021/04/11 08:50:40;;;;;;;1999.90;999.90;;;;;;;14.92;60.20;100507.41;15766765;28;19927;-65
2021/04/11 08:58:30;;;;;;;1999.90;999.90;;;;;;;15.35;60.01;100501.88;15783716;28;20477;-62
2021/04/11 09:06:10;;;;;;;1999.90;999.90;;;;;;;15.56;59.11;100497.50;15799784;28;20040;-64
2021/04/11 09:14:07;;;;;;;1999.90;999.90;;;;;;;16.88;54.82;100484.84;15798691;28;20062;-64
2021/04/11 09:22:10;;;;;;;1999.90;999.90;;;;;;;17.92;52.86;100492.53;15777681;28;20093;-64
2021/04/11 09:29:52;;;;;;;1999.90;999.90;;;;;;;19.72;50.52;100497.78;15758454;28;20207;-60
2021/04/11 09:37:58;;;;;;;1999.90;999.90;;;;;;;19.14;47.42;100503.59;15800702;28;20506;-58
2021/04/11 09:45:41;;;;;;;1999.90;999.90;;;;;;;18.02;50.84;100497.47;15776965;28;20074;-61
2021/04/11 09:53:31;;;;;;;1999.90;999.90;;;;;;;18.20;51.27;100494.84;15765059;28;20044;-55
2021/04/11 10:01:12;;;;;;;1999.90;999.90;;;;;;;18.79;50.30;100492.91;15762157;28;20074;-59
2021/04/11 10:09:02;;;;;;;1999.90;999.90;;;;;;;19.18;49.08;100487.47;15784398;28;20047;-61
2021/04/11 10:16:44;;;;;;;1999.90;999.90;;;;;;;19.15;51.10;100479.75;15800529;28;20460;-60
2021/04/11 10:24:30;;;;;;;1999.90;999.90;;;;;;;19.67;47.23;100486.84;15796436;28;20373;-62
2021/04/11 10:32:11;;;;;;;1999.90;999.90;;;;;;;20.79;45.66;100460.16;15761906;28;20040;-56
2021/04/11 10:39:52;;;;;;;1999.90;999.90;;;;;;;23.58;39.86;100460.38;15784837;28;20193;-57
2021/04/11 10:47:57;;;;;;;1999.90;999.90;;;;;;;23.74;37.32;100465.47;15806351;28;20044;-61
2021/04/11 10:55:50;;;;;;;1999.90;999.90;;;;;;;25.58;35.15;100455.56;15806671;28;20040;-59
2021/04/11 11:04:09;;;;;;;1999.90;999.90;;;;;;;25.69;34.30;100468.81;15805126;28;20051;-53
2021/04/11 11:12:01;;;;;;;1999.90;999.90;;;;;;;25.35;34.56;100464.25;15661108;28;20074;-56
2021/04/11 11:19:44;;;;;;;1999.90;999.90;;;;;;;25.25;33.41;100471.00;15803154;28;20455;-57
2021/04/11 11:27:41;;;;;;;1999.90;999.90;;;;;;;25.64;33.28;100461.59;15841331;28;20043;-55
2021/04/11 11:35:15;;;;;;;1999.90;999.90;;;;;;;24.52;34.09;100461.38;15848221;28;20097;-58
2021/04/11 11:42:59;;;;;;;1999.90;999.90;;;;;;;25.48;33.12;100453.75;15868368;28;20130;-52
2021/04/11 11:50:33;;;;;;;1999.90;999.90;;;;;;;25.98;32.69;100457.56;15866465;28;20493;-56
2021/04/11 11:58:10;;;;;;;1999.90;999.90;;;;;;;27.36;31.55;100452.25;15867300;28;20491;-55
2021/04/11 12:05:48;;;;;;;1999.90;999.90;;;;;;;27.76;30.61;100447.75;15864688;28;20063;-55
2021/04/11 12:13:29;;;;;;;1999.90;999.90;;;;;;;27.81;29.89;100444.28;15845986;28;20044;-54
2021/04/11 12:21:10;;;;;;;1999.90;999.90;;;;;;;27.80;30.56;100436.16;15865405;28;20050;-54
2021/04/11 12:28:44;;;;;;;1999.90;999.90;;;;;;;28.63;29.13;100435.81;15834689;22;20415;-62
2021/04/11 12:36:23;;;;;;;1999.90;999.90;;;;;;;27.80;29.89;100416.91;15788715;28;20048;-62
2021/04/11 12:44:04;;;;;;;1999.90;999.90;;;;;;;31.64;24.72;100413.47;15764057;28;20102;-62
2021/04/11 12:51:40;;;;;;;1999.90;999.90;;;;;;;27.42;31.00;100407.47;15724432;28;20040;-62
2021/04/11 12:59:21;;;;;;;1999.90;999.90;;;;;;;32.99;25.14;100423.91;15740865;28;20066;-63
2021/04/11 13:06:59;;;;;;;1999.90;999.90;;;;;;;29.98;26.46;100426.19;15741480;28;20071;-62
2021/04/11 13:14:40;;;;;;;1999.90;999.90;;;;;;;31.44;24.18;100416.88;15723511;28;20048;-63
2021/04/11 13:22:17;;;;;;;1999.90;999.90;;;;;;;30.90;25.52;100424.31;15740674;28;20044;-61
2021/04/11 13:29:59;;;;;;;1999.90;999.90;;;;;;;25.16;32.09;100403.06;15721762;28;20563;-65
2021/04/11 13:37:33;;;;;;;1999.90;999.90;;;;;;;26.61;30.93;100402.84;15764246;28;20044;-64
2021/04/11 13:45:14;;;;;;;1999.90;999.90;;;;;;;26.80;30.93;100396.19;15760704;28;20468;-63
2021/04/11 13:52:54;;;;;;;1999.90;999.90;;;;;;;27.00;30.16;100379.63;15866349;28;20503;-64
2021/04/11 14:00:40;;;;;;;1999.90;999.90;;;;;;;26.14;30.76;100386.88;15847957;28;20535;-65
2021/04/11 14:08:18;;;;;;;1999.90;999.90;;;;;;;24.97;33.53;100369.59;15866510;28;20089;-64
2021/04/11 14:16:00;;;;;;;1999.90;999.90;;;;;;;24.79;33.10;100367.13;15878371;28;20035;-65
2021/04/11 14:23:40;;;;;;;1999.90;999.90;;;;;;;24.57;34.36;100369.59;15843173;28;20051;-65
2021/04/11 14:31:23;;;;;;;1999.90;999.90;;;;;;;24.42;34.52;100362.56;15859644;28;20482;-61
2021/04/11 14:38:59;;;;;;;1999.90;999.90;;;;;;;24.05;36.40;100370.13;15876989;28;20460;-63
2021/04/11 14:46:38;;;;;;;1999.90;999.90;;;;;;;23.77;35.07;100371.41;15857834;28;20127;-61
2021/04/11 14:54:19;;;;;;;1999.90;999.90;;;;;;;24.48;35.14;100373.00;15875307;28;20068;-62
2021/04/11 15:01:56;;;;;;;1999.90;999.90;;;;;;;24.06;35.40;100368.88;15857207;28;20039;-62
2021/04/11 15:09:42;;;;;;;1999.90;999.90;;;;;;;24.07;36.13;100367.66;15874671;28;21048;-62
2021/04/11 15:17:23;;;;;;;1999.90;999.90;;;;;;;23.81;35.64;100366.47;15856421;28;20047;-58
2021/04/11 15:25:05;;;;;;;1999.90;999.90;;;;;;;24.05;35.21;100357.91;15837821;28;20453;-61
2021/04/11 15:32:41;;;;;;;1999.90;999.90;;;;;;;23.83;35.34;100363.97;15855604;28;20039;-62
2021/04/11 15:59:23;;;;;;;1999.90;999.90;;;;;;;23.59;37.60;100359.50;15850569;28;20035;-63
2021/04/11 16:07:10;;;;;;;1999.90;999.90;;;;;;;23.57;37.87;100361.94;15853819;28;20040;-61
2021/04/11 16:14:55;;;;;;;1999.90;999.90;;;;;;;23.67;36.99;100343.13;15853489;28;20096;-62
2021/04/11 16:22:34;;;;;;;1999.90;999.90;;;;;;;23.35;38.39;100357.81;15820807;28;20041;-61
2021/04/11 16:30:13;;;;;;;1999.90;999.90;;;;;;;21.89;43.21;100358.22;15771012;28;20044;-60
2021/04/11 16:38:03;;;;;;;1999.90;999.90;;;;;;;21.70;45.01;100380.69;15789269;28;20486;-62
2021/04/11 16:45:44;;;;;;;1999.90;999.90;;;;;;;20.96;46.49;100374.22;15785200;28;20059;-63
2021/04/11 16:53:23;;;;;;;1999.90;999.90;;;;;;;21.16;46.04;100364.00;15793882;28;20048;-61
2021/04/11 17:01:16;;;;;;;1999.90;999.90;;;;;;;20.70;47.86;100375.53;15920329;27;20860;-64
2021/04/11 17:09:00;;;;;;;1999.90;999.90;;;;;;;20.62;48.37;100377.56;15870687;27;20051;-62
2021/04/11 17:16:46;;;;;;;1999.90;999.90;;;;;;;20.70;47.96;100384.03;15846570;28;20514;-63
2021/04/11 17:24:22;;;;;;;1999.90;999.90;;;;;;;20.71;48.39;100394.97;15758605;28;20051;-64
2021/04/11 17:31:58;;;;;;;1999.90;999.90;;;;;;;20.07;53.01;100422.56;15865842;27;20412;-62
2021/04/11 17:39:31;;;;;;;1999.90;999.90;;;;;;;19.42;56.80;100432.97;15836357;28;20139;-63
2021/04/11 17:47:11;;;;;;;;;;;;;;;18.79;58.20;100454.13;15854102;28;20126;-64
2021/04/11 17:54:51;;;;;;;1999.90;999.90;;;;;;;18.48;60.44;100489.41;15853973;28;19924;-65
2021/04/11 18:02:28;;;;;;;1999.90;999.90;;;;;;;16.55;69.72;100534.22;15854226;28;20069;-63
2021/04/11 18:10:19;;;;;;;1999.90;999.90;;;;;;;15.80;72.38;100547.00;15808091;28;20062;-62
2021/04/11 18:18:26;;;;;;;1999.90;999.90;;;;;;;15.25;73.91;100599.66;15811637;28;20423;-61
2021/04/11 18:26:05;;;;;;;1999.90;999.90;;;;;;;15.02;75.38;100615.59;15793307;28;20039;-64
2021/04/11 18:33:48;;;;;;;1999.90;999.90;;;;;;;14.40;75.66;100587.16;15794357;28;20602;-60
2021/04/11 18:41:32;;;;;;;1999.90;999.90;;;;;;;13.76;75.30;100629.50;15811058;28;20185;-61
2021/04/11 18:49:23;;;;;;;;;;;;;;;13.04;73.93;100643.31;15793130;28;20564;-60
2021/04/11 18:57:14;;;;;;;1999.90;999.90;;;;;;;12.44;74.04;100661.69;15810166;28;19993;-61
2021/04/11 19:04:49;;;;;;;1999.90;999.90;;;;;;;12.62;72.52;100668.75;15808547;28;20136;-64
2021/04/11 19:13:00;;;;;;;1999.90;999.90;;;;;;;12.23;72.57;100695.34;15808972;28;20345;-63
2021/04/11 19:20:39;;;;;;;1999.90;999.90;;;;;;;11.42;73.35;100727.38;15789823;28;20079;-64
2021/04/11 19:28:29;;;;;;;1999.90;999.90;;;;;;;11.13;72.99;100761.72;15789222;28;20040;-64
2021/04/11 19:36:20;;;;;;;1999.90;999.90;;;;;;;10.62;74.12;100762.72;15807478;28;20040;-64
2021/04/11 19:44:16;;;;;;;1999.90;999.90;;;;;;;10.79;73.51;100790.59;15806802;28;20040;-64
2021/04/11 19:52:13;;;;;;;1999.90;999.90;;;;;;;10.60;73.02;100801.28;15805654;28;20055;-65
2021/04/11 20:00:20;;;;;;;1999.90;999.90;;;;;;;10.53;73.96;100793.44;15787768;28;20527;-63
2021/04/11 20:08:14;;;;;;;1999.90;999.90;;;;;;;10.36;73.14;100796.25;15805181;28;20056;-60
2021/04/11 20:16:08;;;;;;;1999.90;999.90;;;;;;;10.08;73.51;100779.81;15803434;28;20130;-60
2021/04/11 20:23:53;;;;;;;1999.90;999.90;;;;;;;9.95;71.92;100791.97;15804231;28;20052;-61
2021/04/11 20:31:38;;;;;;;1999.90;999.90;;;;;;;9.91;70.66;100798.53;15803985;28;20181;-61
2021/04/11 20:39:29;;;;;;;1999.90;999.90;;;;;;;9.82;71.23;100818.84;15803458;28;20050;-60
2021/04/11 20:47:20;;;;;;;1999.90;999.90;;;;;;;9.89;70.10;100823.91;15818919;28;20534;-61
2021/04/11 20:55:13;;;;;;;1999.90;999.90;;;;;;;9.21;71.95;100842.09;15817086;28;20587;-62
2021/04/11 21:02:48;;;;;;;1999.90;999.90;;;;;;;9.23;71.52;100859.28;15795959;28;20089;-62
2021/04/11 21:10:31;;;;;;;1999.90;999.90;;;;;;;9.30;71.21;100872.75;15803190;28;20041;-62
2021/04/11 21:18:14;;;;;;;1999.90;999.90;;;;;;;9.15;72.26;100899.03;15767669;28;20070;-62
2021/04/11 21:25:50;;;;;;;1999.90;999.90;;;;;;;9.09;72.08;100915.06;15783429;28;20079;-63
2021/04/11 21:33:29;;;;;;;1999.90;999.90;;;;;;;8.70;72.99;100926.09;15783628;28;20503;-64
2021/04/11 21:41:08;;;;;;;1999.90;999.90;;;;;;;8.50;72.01;100931.00;15784073;28;20055;-64
2021/04/11 21:49:02;;;;;;;1999.90;999.90;;;;;;;8.53;71.63;100962.91;15812147;28;20044;-62
2021/04/11 21:56:56;;;;;;;1999.90;999.90;;;;;;;8.72;70.10;100966.34;15792831;28;20048;-62
2021/04/11 22:04:32;;;;;;;;;;;;;;;8.73;70.05;101008.91;15812406;28;20677;-62
2021/04/11 22:12:13;;;;;;;1999.90;999.90;;;;;;;8.35;71.06;101009.22;15807217;28;19948;-62
2021/04/11 22:19:52;;;;;;;1999.90;999.90;;;;;;;8.05;70.57;101032.88;15775774;28;20150;-61
2021/04/11 22:27:40;;;;;;;1999.90;999.90;;;;;;;8.03;69.80;101035.97;15792833;28;20047;-62
2021/04/11 22:35:15;;;;;;;1999.90;999.90;;;;;;;7.84;69.87;101051.91;15792945;28;20048;-58
2021/04/11 22:42:51;;;;;;;1999.90;999.90;;;;;;;7.63;70.54;101087.56;15792624;28;20076;-61
2021/04/11 22:50:29;;;;;;;1999.90;999.90;;;;;;;7.68;70.43;101087.44;15810183;28;20040;-61
2021/04/11 22:58:10;;;;;;;1999.90;999.90;;;;;;;7.68;70.45;101089.41;15775300;28;20048;-59
2021/04/11 23:05:49;;;;;;;1999.90;999.90;;;;;;;7.48;70.89;101088.63;15791616;28;20081;-61
2021/04/11 23:13:24;;;;;;;1999.90;999.90;;;;;;;7.71;69.64;101083.22;15790821;28;20502;-62
2021/04/11 23:21:08;;;;;;;1999.90;999.90;;;;;;;7.64;70.36;101088.38;15810519;28;20054;-60
2021/04/11 23:28:49;;;;;;;1999.90;999.90;;;;;;;7.58;69.54;101111.78;15790553;28;20040;-60
2021/04/11 23:36:28;;;;;;;1999.90;999.90;;;;;;;7.60;69.52;101123.41;15788467;28;20139;-61
2021/04/11 23:44:06;;;;;;;1999.90;999.90;;;;;;;7.59;69.66;101160.66;15804311;28;20047;-60
2021/04/11 23:51:45;;;;;;;1999.90;999.90;;;;;;;7.40;69.98;101175.41;15788623;28;20040;-63
2021/04/11 23:59:24;;;;;;;1999.90;999.90;;;;;;;7.04;71.06;101188.94;15805050;28;20048;-62
